createdAt,value
2018-05-02T00:00:13.001Z,7.53
2018-05-02T00:02:40.678Z,6.87
2018-05-02T00:05:08.393Z,7.03
2018-05-02T00:07:36.068Z,6.70
2018-05-02T00:10:03.809Z,6.63
2018-05-02T00:12:31.509Z,6.87
2018-05-02T00:14:59.217Z,6.47
2018-05-02T00:17:27.714Z,6.13
2018-05-02T00:19:55.409Z,6.20
2018-05-02T00:22:23.109Z,4.63
2018-05-02T00:24:51.549Z,5.40
2018-05-02T00:27:19.278Z,5.60
2018-05-02T00:29:46.952Z,5.83
2018-05-02T00:32:14.630Z,6.10
2018-05-02T00:34:42.333Z,5.50
2018-05-02T00:37:10.770Z,5.43
2018-05-02T00:39:38.482Z,6.00
2018-05-02T00:42:06.953Z,5.93
2018-05-02T00:44:35.413Z,6.00
2018-05-02T00:47:03.090Z,5.73
2018-05-02T00:49:31.558Z,6.27
2018-05-02T00:51:59.256Z,6.10
2018-05-02T00:54:26.933Z,6.77
2018-05-02T00:56:54.633Z,6.07
2018-05-02T00:59:22.306Z,6.13
2018-05-02T01:01:50.019Z,6.57
2018-05-02T01:04:17.717Z,6.60
2018-05-02T01:06:45.401Z,5.47
2018-05-02T01:09:13.097Z,6.00
2018-05-02T01:11:40.797Z,6.57
2018-05-02T01:14:08.492Z,5.73
2018-05-02T01:16:36.926Z,5.83
2018-05-02T01:19:04.694Z,6.43
2018-05-02T01:21:32.365Z,5.70
2018-05-02T01:24:00.039Z,5.87
2018-05-02T01:26:27.745Z,6.80
2018-05-02T01:28:55.413Z,6.43
2018-05-02T01:31:23.093Z,6.77
2018-05-02T01:33:50.967Z,6.53
2018-05-02T01:36:18.641Z,7.30
2018-05-02T01:38:46.310Z,6.47
2018-05-02T01:41:14.011Z,6.83
2018-05-02T01:43:41.682Z,6.50
2018-05-02T01:46:09.373Z,6.07
2018-05-02T01:48:37.113Z,5.13
2018-05-02T01:51:04.806Z,6.53
2018-05-02T01:53:33.244Z,5.73
2018-05-02T01:56:01.177Z,5.70
2018-05-02T01:58:28.850Z,5.67
2018-05-02T02:00:57.286Z,5.60
2018-05-02T02:03:24.989Z,5.60
2018-05-02T02:05:53.446Z,5.00
2018-05-02T02:08:21.145Z,5.40
2018-05-02T02:10:48.843Z,5.00
2018-05-02T02:13:16.510Z,5.83
2018-05-02T02:15:44.208Z,5.10
2018-05-02T02:18:12.691Z,5.20
2018-05-02T02:20:41.152Z,4.20
2018-05-02T02:23:08.833Z,4.93
2018-05-02T02:25:37.317Z,4.90
2018-05-02T02:28:05.751Z,4.33
2018-05-02T02:30:33.433Z,4.50
2018-05-02T02:33:01.132Z,5.60
2018-05-02T02:35:28.827Z,4.43
2018-05-02T02:37:56.525Z,4.80
2018-05-02T02:40:24.228Z,4.20
2018-05-02T02:42:51.911Z,4.73
2018-05-02T02:45:19.609Z,4.73
2018-05-02T02:47:47.310Z,3.90
2018-05-02T02:50:15.005Z,4.53
2018-05-02T02:52:42.673Z,4.83
2018-05-02T02:55:10.399Z,4.57
2018-05-02T02:57:38.083Z,4.60
2018-05-02T03:00:05.791Z,4.20
2018-05-02T03:02:34.269Z,4.20
2018-05-02T03:05:02.816Z,3.60
2018-05-02T03:07:30.545Z,3.40
2018-05-02T03:09:58.243Z,3.73
2018-05-02T03:12:26.710Z,3.30
2018-05-02T03:14:54.388Z,3.40
2018-05-02T03:17:22.089Z,3.30
2018-05-02T03:19:50.553Z,3.47
2018-05-02T03:22:18.999Z,3.40
2018-05-02T03:24:46.703Z,3.23
2018-05-02T03:27:15.161Z,3.40
2018-05-02T03:29:42.845Z,3.37
2018-05-02T03:32:11.305Z,4.47
2018-05-02T03:34:39.001Z,3.77
2018-05-02T03:37:06.671Z,3.77
2018-05-02T03:39:34.411Z,3.60
2018-05-02T03:42:02.845Z,3.30
2018-05-02T03:44:30.526Z,3.30
2018-05-02T03:46:58.229Z,4.00
2018-05-02T03:49:25.897Z,3.87
2018-05-02T03:51:53.591Z,4.60
2018-05-02T03:54:21.289Z,4.53
2018-05-02T03:56:49.727Z,3.80
2018-05-02T03:59:17.463Z,4.40
2018-05-02T04:01:57.021Z,3.97
2018-05-02T04:04:50.285Z,4.03
2018-05-02T04:07:18.013Z,3.80
2018-05-02T04:09:46.451Z,4.50
2018-05-02T04:12:14.161Z,4.50
2018-05-02T04:14:41.860Z,3.93
2018-05-02T04:17:09.557Z,4.90
2018-05-02T04:19:38.014Z,4.33
2018-05-02T04:22:05.721Z,5.00
2018-05-02T04:24:33.424Z,5.07
2018-05-02T04:27:01.130Z,5.97
2018-05-02T04:29:29.625Z,5.30
2018-05-02T04:31:57.293Z,5.60
2018-05-02T04:34:24.961Z,4.30
2018-05-02T04:36:52.657Z,5.07
2018-05-02T04:39:20.326Z,6.27
2018-05-02T04:41:48.013Z,5.90
2018-05-02T04:44:16.481Z,4.53
2018-05-02T04:46:44.157Z,4.97
2018-05-02T04:49:12.612Z,3.60
2018-05-02T04:51:40.309Z,2.87
2018-05-02T04:54:08.768Z,3.13
2018-05-02T04:56:37.209Z,3.53
2018-05-02T04:59:05.084Z,3.57
2018-05-02T05:01:32.786Z,3.47
2018-05-02T05:04:01.261Z,3.33
2018-05-02T05:06:29.868Z,2.70
2018-05-02T05:08:57.506Z,3.27
2018-05-02T05:11:25.978Z,3.27
2018-05-02T05:13:53.686Z,3.97
2018-05-02T05:16:21.353Z,3.60
2018-05-02T05:18:49.051Z,3.87
2018-05-02T05:21:16.792Z,4.00
2018-05-02T05:23:44.461Z,3.73
2018-05-02T05:26:12.256Z,3.80
2018-05-02T05:28:40.734Z,4.87
2018-05-02T05:31:09.185Z,4.40
2018-05-02T05:33:36.882Z,4.20
2018-05-02T05:36:05.357Z,3.73
2018-05-02T05:38:33.822Z,4.00
2018-05-02T05:41:01.589Z,4.07
2018-05-02T05:43:29.261Z,3.50
2018-05-02T05:45:57.733Z,3.63
2018-05-02T05:48:25.402Z,4.53
2018-05-02T05:50:53.890Z,5.10
2018-05-02T05:53:22.325Z,5.73
2018-05-02T05:55:51.628Z,5.60
2018-05-02T05:58:19.325Z,5.90
2018-05-02T06:00:47.870Z,6.07
2018-05-02T06:03:16.293Z,5.13
2018-05-02T06:05:44.767Z,4.90
2018-05-02T06:08:13.249Z,4.37
2018-05-02T06:10:41.688Z,3.90
2018-05-02T06:13:09.429Z,4.27
2018-05-02T06:15:37.156Z,3.67
2018-05-02T06:18:05.590Z,3.40
2018-05-02T06:20:33.350Z,3.30
2018-05-02T06:23:01.029Z,3.27
2018-05-02T06:25:28.743Z,3.30
2018-05-02T06:27:56.460Z,3.47
2018-05-02T06:30:24.132Z,3.53
2018-05-02T06:32:52.597Z,3.47
2018-05-02T06:35:20.294Z,3.57
2018-05-02T06:37:48.055Z,3.50
2018-05-02T06:40:16.583Z,3.40
2018-05-02T06:42:44.310Z,3.27
2018-05-02T06:45:11.989Z,3.10
2018-05-02T06:47:39.699Z,3.30
2018-05-02T06:50:07.400Z,3.37
2018-05-02T06:52:35.098Z,3.70
2018-05-02T06:55:02.797Z,3.40
2018-05-02T06:57:31.273Z,3.60
2018-05-02T06:59:59.733Z,3.40
2018-05-02T07:02:27.406Z,3.47
2018-05-02T07:04:55.877Z,3.80
2018-05-02T07:07:23.569Z,3.77
2018-05-02T07:09:52.022Z,3.77
2018-05-02T07:12:19.762Z,3.37
2018-05-02T07:14:47.442Z,3.53
2018-05-02T07:17:15.201Z,3.77
2018-05-02T07:19:42.873Z,3.47
2018-05-02T07:22:10.761Z,3.40
2018-05-02T07:24:39.229Z,3.67
2018-05-02T07:27:07.709Z,3.73
2018-05-02T07:29:36.169Z,4.37
2018-05-02T07:32:03.849Z,3.80
2018-05-02T07:34:32.337Z,4.30
2018-05-02T07:37:00.773Z,4.17
2018-05-02T07:39:28.441Z,4.23
2018-05-02T07:41:56.151Z,4.07
2018-05-02T07:44:23.885Z,4.50
2018-05-02T07:46:51.581Z,4.00
2018-05-02T07:49:19.280Z,3.97
2018-05-02T07:51:46.949Z,3.90
2018-05-02T07:54:14.661Z,3.07
2018-05-02T07:56:42.396Z,3.90
2018-05-02T07:59:10.870Z,3.70
2018-05-02T08:01:38.543Z,4.27
2018-05-02T08:04:07.039Z,3.97
2018-05-02T08:06:34.718Z,3.17
2018-05-02T08:09:02.441Z,3.10
2018-05-02T08:11:30.926Z,3.10
2018-05-02T08:13:59.384Z,2.87
2018-05-02T08:16:27.126Z,2.80
2018-05-02T08:18:54.845Z,3.17
2018-05-02T08:21:23.287Z,2.73
2018-05-02T08:23:50.993Z,2.50
2018-05-02T08:26:18.693Z,2.93
2018-05-02T08:28:46.398Z,2.40
2018-05-02T08:31:14.846Z,2.50
2018-05-02T08:33:42.545Z,2.90
2018-05-02T08:36:11.016Z,2.57
2018-05-02T08:38:39.456Z,2.20
2018-05-02T08:41:07.157Z,2.50
2018-05-02T08:43:35.597Z,2.50
2018-05-02T08:46:03.301Z,2.77
2018-05-02T08:48:31.779Z,3.03
2018-05-02T08:51:00.221Z,3.27
2018-05-02T08:53:27.931Z,3.33
2018-05-02T08:55:56.430Z,2.87
2018-05-02T08:58:24.157Z,2.50
2018-05-02T09:00:52.604Z,2.63
2018-05-02T09:03:20.329Z,2.90
2018-05-02T09:05:48.009Z,2.87
2018-05-02T09:08:15.685Z,2.33
2018-05-02T09:10:43.401Z,3.27
2018-05-02T09:13:11.841Z,2.77
2018-05-02T09:15:39.681Z,2.50
2018-05-02T09:18:07.285Z,2.80
2018-05-02T09:20:34.961Z,2.70
2018-05-02T09:23:03.429Z,3.30
2018-05-02T09:25:31.914Z,3.10
2018-05-02T09:28:00.359Z,3.07
2018-05-02T09:30:28.109Z,3.43
2018-05-02T09:32:56.577Z,2.43
2018-05-02T09:35:24.282Z,2.57
2018-05-02T09:37:51.954Z,2.80
2018-05-02T09:40:20.429Z,3.10
2018-05-02T09:42:48.141Z,3.30
2018-05-02T09:45:15.809Z,2.80
2018-05-02T09:47:43.513Z,2.90
2018-05-02T09:50:11.225Z,3.37
2018-05-02T09:52:38.899Z,2.70
2018-05-02T09:55:06.637Z,2.60
2018-05-02T09:57:34.313Z,2.40
2018-05-02T10:00:02.763Z,2.70
2018-05-02T10:02:30.501Z,3.20
2018-05-02T10:04:58.177Z,3.00
2018-05-02T10:07:26.649Z,2.77
2018-05-02T10:09:55.129Z,2.10
2018-05-02T10:12:23.588Z,2.57
2018-05-02T10:14:51.286Z,2.70
2018-05-02T10:17:19.774Z,2.67
2018-05-02T10:19:47.470Z,3.20
2018-05-02T10:22:15.137Z,3.07
2018-05-02T10:24:42.837Z,3.10
2018-05-02T10:27:11.297Z,2.77
2018-05-02T10:29:38.973Z,3.07
2018-05-02T10:32:07.493Z,3.70
2018-05-02T10:34:35.174Z,4.17
2018-05-02T10:37:02.863Z,4.07
2018-05-02T10:39:31.377Z,4.37
2018-05-02T10:41:59.816Z,3.87
2018-05-02T10:44:27.521Z,3.63
2018-05-02T10:46:55.225Z,3.67
2018-05-02T10:49:22.901Z,3.43
2018-05-02T10:51:50.613Z,4.27
2018-05-02T10:54:18.319Z,4.43
2018-05-02T10:56:46.030Z,3.90
2018-05-02T10:59:13.705Z,3.90
2018-05-02T11:01:41.416Z,4.17
2018-05-02T11:04:09.118Z,3.80
2018-05-02T11:06:36.796Z,3.50
2018-05-02T11:09:04.582Z,3.93
2018-05-02T11:11:32.261Z,3.90
2018-05-02T11:13:59.966Z,4.20
2018-05-02T11:16:27.698Z,3.67
2018-05-02T11:18:55.369Z,3.87
2018-05-02T11:21:23.849Z,3.17
2018-05-02T11:23:52.321Z,3.27
2018-05-02T11:26:19.997Z,3.60
2018-05-02T11:28:48.465Z,3.13
2018-05-02T11:31:16.941Z,3.23
2018-05-02T11:33:44.649Z,2.80
2018-05-02T11:36:12.337Z,2.90
2018-05-02T11:38:40.042Z,3.27
2018-05-02T11:41:08.514Z,3.27
2018-05-02T11:43:36.957Z,3.57
2018-05-02T11:46:04.705Z,3.00
2018-05-02T11:48:32.381Z,3.00
2018-05-02T11:51:00.058Z,2.93
2018-05-02T11:53:27.758Z,2.90
2018-05-02T11:55:55.446Z,3.53
2018-05-02T11:58:23.145Z,2.80
2018-05-02T12:00:50.850Z,2.33
2018-05-02T12:03:18.556Z,2.40
2018-05-02T12:05:46.228Z,2.87
2018-05-02T12:08:13.929Z,2.63
2018-05-02T12:10:41.630Z,2.57
2018-05-02T12:13:09.302Z,2.47
2018-05-02T12:15:37.025Z,2.60
2018-05-02T12:18:04.717Z,2.17
2018-05-02T12:20:32.417Z,2.40
2018-05-02T12:23:00.894Z,2.20
2018-05-02T12:25:29.337Z,2.43
2018-05-02T12:27:57.041Z,2.63
2018-05-02T12:30:25.527Z,2.00
2018-05-02T12:32:53.993Z,2.40
2018-05-02T12:35:22.444Z,2.20
2018-05-02T12:37:50.990Z,2.50
2018-05-02T12:40:18.669Z,2.17
2018-05-02T12:42:46.342Z,2.57
2018-05-02T12:45:14.817Z,2.67
2018-05-02T12:47:42.501Z,2.40
2018-05-02T12:50:10.201Z,2.83
2018-05-02T12:52:37.947Z,2.77
2018-05-02T12:55:06.442Z,2.90
2018-05-02T12:57:34.881Z,2.90
2018-05-02T13:00:02.618Z,2.73
2018-05-02T13:02:30.354Z,2.80
2018-05-02T13:04:58.051Z,2.90
2018-05-02T13:07:25.757Z,2.60
2018-05-02T13:09:54.225Z,2.43
2018-05-02T13:12:21.900Z,2.37
2018-05-02T13:14:50.370Z,3.10
2018-05-02T13:17:18.085Z,3.23
2018-05-02T13:19:45.777Z,2.60
2018-05-02T13:22:13.511Z,2.83
2018-05-02T13:24:41.191Z,2.40
2018-05-02T13:27:08.865Z,2.53
2018-05-02T13:29:36.565Z,1.63
2018-05-02T13:32:04.244Z,1.93
2018-05-02T13:34:32.032Z,1.80
2018-05-02T13:36:59.735Z,1.63
2018-05-02T13:39:28.201Z,2.00
2018-05-02T13:41:56.689Z,2.43
2018-05-02T13:44:25.188Z,1.70
2018-05-02T13:46:52.885Z,2.27
2018-05-02T13:49:20.582Z,2.30
2018-05-02T13:51:49.081Z,2.30
2018-05-02T13:54:17.546Z,1.90
2018-05-02T13:56:45.261Z,2.57
2018-05-02T13:59:12.993Z,2.37
2018-05-02T14:01:41.433Z,2.30
2018-05-02T14:04:09.150Z,2.30
2018-05-02T14:06:36.986Z,2.07
2018-05-02T14:09:06.229Z,2.20
2018-05-02T14:11:33.902Z,2.17
2018-05-02T14:14:01.610Z,2.27
2018-05-02T14:16:30.047Z,2.50
2018-05-02T14:18:57.778Z,2.40
2018-05-02T14:21:25.495Z,2.70
2018-05-02T14:23:53.194Z,2.70
2018-05-02T14:26:20.869Z,2.80
2018-05-02T14:28:48.573Z,3.07
2018-05-02T14:31:16.274Z,3.40
2018-05-02T14:33:43.951Z,2.53
2018-05-02T14:36:12.441Z,2.20
2018-05-02T14:38:40.308Z,2.80
2018-05-02T14:41:07.984Z,2.60
2018-05-02T14:43:35.694Z,2.63
2018-05-02T14:46:04.145Z,2.90
2018-05-02T14:48:31.860Z,3.13
2018-05-02T14:50:59.561Z,2.80
2018-05-02T14:53:27.250Z,2.63
2018-05-02T14:55:55.830Z,2.70
2018-05-02T14:58:25.609Z,2.60
2018-05-02T15:00:53.992Z,2.77
2018-05-02T15:03:21.670Z,2.93
2018-05-02T15:05:49.376Z,3.00
2018-05-02T15:08:17.092Z,2.70
2018-05-02T15:10:45.564Z,2.90
2018-05-02T15:13:13.270Z,3.33
2018-05-02T15:15:40.948Z,3.17
2018-05-02T15:18:08.621Z,2.50
2018-05-02T15:20:36.330Z,2.73
2018-05-02T15:23:04.772Z,3.50
2018-05-02T15:25:32.471Z,3.23
2018-05-02T15:28:00.957Z,3.07
2018-05-02T15:30:29.393Z,3.17
2018-05-02T15:32:57.101Z,3.90
2018-05-02T15:35:25.578Z,3.43
2018-05-02T15:37:54.056Z,3.80
2018-05-02T15:40:22.567Z,3.70
2018-05-02T15:42:50.254Z,3.87
2018-05-02T15:45:17.926Z,3.73
2018-05-02T15:47:45.610Z,3.73
2018-05-02T15:50:13.321Z,4.00
2018-05-02T15:52:41.045Z,3.50
2018-05-02T15:55:09.529Z,4.17
2018-05-02T15:57:38.066Z,3.87
2018-05-02T16:00:05.817Z,3.17
2018-05-02T16:02:33.494Z,3.57
2018-05-02T16:05:01.213Z,3.87
2018-05-02T16:07:28.918Z,4.23
2018-05-02T16:09:56.669Z,3.57
2018-05-02T16:12:24.357Z,3.60
2018-05-02T16:14:52.051Z,6.60
2018-05-02T16:17:20.524Z,3.70
2018-05-02T16:19:49.069Z,3.30
2018-05-02T16:22:16.743Z,2.70
2018-05-02T16:24:44.428Z,2.93
2018-05-02T16:27:12.893Z,3.03
2018-05-02T16:29:40.573Z,3.23
2018-05-02T16:32:09.042Z,3.10
2018-05-02T16:34:37.533Z,3.27
2018-05-02T16:37:05.980Z,3.33
2018-05-02T16:39:33.685Z,2.73
2018-05-02T16:42:01.389Z,3.90
2018-05-02T16:44:29.067Z,3.47
2018-05-02T16:46:56.766Z,3.43
2018-05-02T16:49:25.237Z,3.40
2018-05-02T16:51:53.001Z,2.80
2018-05-02T16:54:21.457Z,3.23
2018-05-02T16:56:49.168Z,3.33
2018-05-02T16:59:16.865Z,3.07
2018-05-02T17:01:44.561Z,3.70
2018-05-02T17:04:13.158Z,3.33
2018-05-02T17:06:40.786Z,3.37
2018-05-02T17:09:08.493Z,3.30
2018-05-02T17:11:36.205Z,3.33
2018-05-02T17:14:03.881Z,3.10
2018-05-02T17:16:32.535Z,3.23
2018-05-02T17:19:00.251Z,4.30
2018-05-02T17:21:27.945Z,4.87
2018-05-02T17:23:55.621Z,4.80
2018-05-02T17:26:23.325Z,3.80
2018-05-02T17:28:51.793Z,4.30
2018-05-02T17:31:20.241Z,4.17
2018-05-02T17:33:47.994Z,4.33
2018-05-02T17:36:15.671Z,4.27
2018-05-02T17:38:43.349Z,3.90
2018-05-02T17:41:11.065Z,3.97
2018-05-02T17:43:38.762Z,3.93
2018-05-02T17:46:06.472Z,4.67
2018-05-02T17:48:34.173Z,3.80
2018-05-02T17:51:01.865Z,5.10
2018-05-02T17:53:29.544Z,4.07
2018-05-02T17:55:58.013Z,5.00
2018-05-02T17:58:26.493Z,4.40
2018-05-02T18:00:54.937Z,4.30
2018-05-02T18:03:22.698Z,5.37
2018-05-02T18:05:50.378Z,5.97
2018-05-02T18:08:18.056Z,7.80
2018-05-02T18:10:46.529Z,5.27
2018-05-02T18:13:14.202Z,4.63
2018-05-02T18:15:42.669Z,4.77
2018-05-02T18:18:10.384Z,4.53
2018-05-02T18:20:38.081Z,4.87
2018-05-02T18:23:05.758Z,4.33
2018-05-02T18:25:34.298Z,4.40
2018-05-02T18:28:02.063Z,4.83
2018-05-02T18:30:29.788Z,4.30
2018-05-02T18:32:57.491Z,4.73
2018-05-02T18:35:26.936Z,4.43
2018-05-02T18:37:55.424Z,4.70
2018-05-02T18:40:23.908Z,4.20
2018-05-02T18:42:52.369Z,4.43
2018-05-02T18:45:22.542Z,5.30
2018-05-02T18:47:50.254Z,4.30
2018-05-02T18:50:18.742Z,4.40
2018-05-02T18:52:47.190Z,4.50
2018-05-02T18:55:15.041Z,4.37
2018-05-02T18:57:43.487Z,4.30
2018-05-02T19:00:11.169Z,4.83
2018-05-02T19:02:38.889Z,5.47
2018-05-02T19:05:07.326Z,6.00
2018-05-02T19:07:35.024Z,7.00
2018-05-02T19:10:03.538Z,6.90
2018-05-02T19:12:31.234Z,4.87
2018-05-02T19:14:58.901Z,5.10
2018-05-02T19:17:26.612Z,4.90
2018-05-02T19:19:59.902Z,5.10
2018-05-02T19:22:27.617Z,5.10
2018-05-02T19:25:01.061Z,4.57
2018-05-02T19:27:28.762Z,5.20
2018-05-02T19:29:57.241Z,6.43
2018-05-02T19:32:30.737Z,7.80
2018-05-02T19:34:58.442Z,8.30
2018-05-02T19:37:26.881Z,8.73
2018-05-02T19:40:00.313Z,5.23
2018-05-02T19:42:34.454Z,5.50
2018-05-02T19:45:02.190Z,5.80
2018-05-02T19:47:30.651Z,5.37
2018-05-02T19:49:58.343Z,5.53
2018-05-02T19:52:32.529Z,5.33
2018-05-02T19:55:00.274Z,4.90
2018-05-02T19:57:27.985Z,5.80
2018-05-02T19:59:56.449Z,6.07
2018-05-02T20:02:30.674Z,5.87
2018-05-02T20:04:59.154Z,6.70
2018-05-02T20:07:33.242Z,6.67
2018-05-02T20:10:06.713Z,5.70
2018-05-02T20:12:39.993Z,6.73
2018-05-02T20:15:07.701Z,7.37
2018-05-02T20:17:35.373Z,7.13
2018-05-02T20:20:03.890Z,6.73
2018-05-02T20:22:31.599Z,7.43
2018-05-02T20:24:59.304Z,7.40
2018-05-02T20:27:26.978Z,9.30
2018-05-02T20:29:54.717Z,6.60
2018-05-02T20:32:22.419Z,6.20
2018-05-02T20:34:50.089Z,6.33
2018-05-02T20:37:17.789Z,6.60
2018-05-02T20:39:46.285Z,5.87
2018-05-02T20:42:13.956Z,5.67
2018-05-02T20:44:41.685Z,5.93
2018-05-02T20:47:10.118Z,5.10
2018-05-02T20:49:37.790Z,5.40
2018-05-02T20:52:05.489Z,5.47
2018-05-02T20:54:34.294Z,4.93
2018-05-02T20:57:01.993Z,5.80
2018-05-02T20:59:29.712Z,5.70
2018-05-02T21:01:58.149Z,4.30
2018-05-02T21:04:26.617Z,4.97
2018-05-02T21:06:54.338Z,3.73
2018-05-02T21:09:22.013Z,4.60
2018-05-02T21:11:49.705Z,4.40
2018-05-02T21:14:18.197Z,4.13
2018-05-02T21:16:45.869Z,3.90
2018-05-02T21:19:13.562Z,4.37
2018-05-02T21:21:41.266Z,3.93
2018-05-02T21:24:08.966Z,4.53
2018-05-02T21:26:37.402Z,3.53
2018-05-02T21:29:05.101Z,3.60
2018-05-02T21:31:32.806Z,4.30
2018-05-02T21:34:00.477Z,4.43
2018-05-02T21:36:28.177Z,3.90
2018-05-02T21:38:55.861Z,5.00
2018-05-02T21:41:24.297Z,3.73
2018-05-02T21:43:51.993Z,4.40
2018-05-02T21:46:20.429Z,3.80
2018-05-02T21:48:48.136Z,4.30
2018-05-02T21:51:16.602Z,3.87
2018-05-02T21:53:44.269Z,3.50
2018-05-02T21:56:11.963Z,4.10
2018-05-02T21:58:39.659Z,3.70
2018-05-02T22:01:07.333Z,4.57
2018-05-02T22:03:35.030Z,4.00
2018-05-02T22:06:03.501Z,4.03
2018-05-02T22:08:31.961Z,4.63
2018-05-02T22:10:59.634Z,4.47
2018-05-02T22:13:27.334Z,5.53
2018-05-02T22:15:55.033Z,4.07
2018-05-02T22:18:22.701Z,4.13
2018-05-02T22:20:50.461Z,4.10
2018-05-02T22:23:18.145Z,4.67
2018-05-02T22:25:46.591Z,4.40
2018-05-02T22:28:14.290Z,5.07
2018-05-02T22:30:42.728Z,3.77
2018-05-02T22:33:10.417Z,4.20
2018-05-02T22:35:38.123Z,4.90
2018-05-02T22:38:05.790Z,5.07
2018-05-02T22:40:33.489Z,4.67
2018-05-02T22:43:01.198Z,5.20
2018-05-02T22:45:28.894Z,4.70
2018-05-02T22:47:57.342Z,4.93
2018-05-02T22:50:25.038Z,4.47
2018-05-02T22:52:52.737Z,4.97
2018-05-02T22:55:21.237Z,4.27
2018-05-02T22:57:49.733Z,5.60
2018-05-02T23:00:17.409Z,4.30
2018-05-02T23:02:45.093Z,4.80
2018-05-02T23:05:12.821Z,4.83
2018-05-02T23:07:40.493Z,5.43
2018-05-02T23:10:08.180Z,5.03
2018-05-02T23:12:35.885Z,4.63
2018-05-02T23:15:04.325Z,4.83
2018-05-02T23:17:32.017Z,5.17
2018-05-02T23:20:00.489Z,4.23
2018-05-02T23:22:28.969Z,4.50
2018-05-02T23:24:57.405Z,4.57
2018-05-02T23:27:25.113Z,4.37
2018-05-02T23:29:53.581Z,4.53
2018-05-02T23:32:21.257Z,4.83
2018-05-02T23:34:49.729Z,4.40
2018-05-02T23:37:17.421Z,4.67
2018-05-02T23:39:45.085Z,4.97
2018-05-02T23:42:12.825Z,5.33
2018-05-02T23:44:41.265Z,4.93
2018-05-02T23:47:08.933Z,5.27
2018-05-02T23:49:36.634Z,4.93
2018-05-02T23:52:05.074Z,5.30
2018-05-02T23:54:32.773Z,5.37
2018-05-02T23:57:01.245Z,5.57
2018-05-02T23:59:29.682Z,4.87
